sensor_id;sensor_type;location;lat;lon;timestamp;P1;durP1;ratioP1;P2;durP2;ratioP2
69594;SDS011;56800;52.142;5.364;2023-05-19T00:02:24;10.73;;;3.40;;
69594;SDS011;56800;52.142;5.364;2023-05-19T00:04:51;10.45;;;3.17;;
69594;SDS011;56800;52.142;5.364;2023-05-19T00:07:18;9.40;;;3.53;;
69594;SDS011;56800;52.142;5.364;2023-05-19T00:09:46;12.05;;;2.92;;
69594;SDS011;56800;52.142;5.364;2023-05-19T00:12:13;14.13;;;3.60;;
69594;SDS011;56800;52.142;5.364;2023-05-19T00:14:40;8.95;;;2.90;;
69594;SDS011;56800;52.142;5.364;2023-05-19T00:17:07;8.15;;;3.30;;
69594;SDS011;56800;52.142;5.364;2023-05-19T00:19:34;11.73;;;3.43;;
69594;SDS011;56800;52.142;5.364;2023-05-19T00:22:01;9.52;;;3.33;;
69594;SDS011;56800;52.142;5.364;2023-05-19T00:24:28;8.77;;;3.00;;
69594;SDS011;56800;52.142;5.364;2023-05-19T00:26:54;14.38;;;3.42;;
69594;SDS011;56800;52.142;5.364;2023-05-19T00:29:21;11.60;;;3.95;;
69594;SDS011;56800;52.142;5.364;2023-05-19T00:31:48;8.90;;;3.40;;
69594;SDS011;56800;52.142;5.364;2023-05-19T00:34:15;13.60;;;3.10;;
69594;SDS011;56800;52.142;5.364;2023-05-19T00:36:41;9.88;;;3.08;;
69594;SDS011;56800;52.142;5.364;2023-05-19T00:39:08;12.93;;;3.60;;
69594;SDS011;56800;52.142;5.364;2023-05-19T00:41:35;7.20;;;3.20;;
69594;SDS011;56800;52.142;5.364;2023-05-19T00:44:01;9.77;;;3.00;;
69594;SDS011;56800;52.142;5.364;2023-05-19T00:46:28;12.40;;;3.47;;
69594;SDS011;56800;52.142;5.364;2023-05-19T00:48:55;10.48;;;3.42;;
69594;SDS011;56800;52.142;5.364;2023-05-19T00:51:22;7.63;;;3.13;;
69594;SDS011;56800;52.142;5.364;2023-05-19T00:53:52;11.95;;;3.60;;
69594;SDS011;56800;52.142;5.364;2023-05-19T00:56:19;14.17;;;3.13;;
69594;SDS011;56800;52.142;5.364;2023-05-19T00:58:46;16.33;;;3.28;;
69594;SDS011;56800;52.142;5.364;2023-05-19T01:01:15;9.63;;;3.40;;
69594;SDS011;56800;52.142;5.364;2023-05-19T01:03:44;9.93;;;3.65;;
69594;SDS011;56800;52.142;5.364;2023-05-19T01:06:12;10.55;;;3.33;;
69594;SDS011;56800;52.142;5.364;2023-05-19T01:08:40;11.73;;;3.37;;
69594;SDS011;56800;52.142;5.364;2023-05-19T01:11:06;9.43;;;3.50;;
69594;SDS011;56800;52.142;5.364;2023-05-19T01:13:34;10.02;;;3.40;;
69594;SDS011;56800;52.142;5.364;2023-05-19T01:18:40;8.77;;;3.33;;
69594;SDS011;56800;52.142;5.364;2023-05-19T01:21:36;11.63;;;3.17;;
69594;SDS011;56800;52.142;5.364;2023-05-19T01:32:33;8.05;;;3.20;;
69594;SDS011;56800;52.142;5.364;2023-05-19T01:35:01;9.30;;;3.20;;
69594;SDS011;56800;52.142;5.364;2023-05-19T01:37:30;8.90;;;3.50;;
69594;SDS011;56800;52.142;5.364;2023-05-19T01:39:58;13.30;;;3.72;;
69594;SDS011;56800;52.142;5.364;2023-05-19T01:42:26;15.30;;;4.03;;
69594;SDS011;56800;52.142;5.364;2023-05-19T01:44:54;8.82;;;3.30;;
69594;SDS011;56800;52.142;5.364;2023-05-19T01:47:22;10.97;;;3.70;;
69594;SDS011;56800;52.142;5.364;2023-05-19T01:49:48;10.20;;;3.58;;
69594;SDS011;56800;52.142;5.364;2023-05-19T01:52:15;10.55;;;3.58;;
69594;SDS011;56800;52.142;5.364;2023-05-19T01:54:42;9.20;;;3.85;;
69594;SDS011;56800;52.142;5.364;2023-05-19T01:57:14;15.85;;;3.90;;
69594;SDS011;56800;52.142;5.364;2023-05-19T01:59:51;15.67;;;3.83;;
69594;SDS011;56800;52.142;5.364;2023-05-19T02:05:14;13.93;;;3.97;;
69594;SDS011;56800;52.142;5.364;2023-05-19T02:07:57;10.88;;;3.58;;
69594;SDS011;56800;52.142;5.364;2023-05-19T02:10:29;10.15;;;3.80;;
69594;SDS011;56800;52.142;5.364;2023-05-19T02:13:03;11.90;;;4.07;;
69594;SDS011;56800;52.142;5.364;2023-05-19T02:15:37;14.10;;;3.70;;
69594;SDS011;56800;52.142;5.364;2023-05-19T02:18:08;11.80;;;3.40;;
69594;SDS011;56800;52.142;5.364;2023-05-19T02:20:39;9.13;;;3.63;;
69594;SDS011;56800;52.142;5.364;2023-05-19T02:23:07;13.10;;;3.58;;
69594;SDS011;56800;52.142;5.364;2023-05-19T02:25:34;16.80;;;3.90;;
69594;SDS011;56800;52.142;5.364;2023-05-19T02:28:01;12.60;;;3.55;;
69594;SDS011;56800;52.142;5.364;2023-05-19T02:30:27;17.83;;;4.13;;
69594;SDS011;56800;52.142;5.364;2023-05-19T02:32:57;10.30;;;4.25;;
69594;SDS011;56800;52.142;5.364;2023-05-19T02:35:23;13.88;;;3.67;;
69594;SDS011;56800;52.142;5.364;2023-05-19T02:37:50;10.77;;;3.97;;
69594;SDS011;56800;52.142;5.364;2023-05-19T02:40:17;13.57;;;3.65;;
69594;SDS011;56800;52.142;5.364;2023-05-19T02:42:43;9.35;;;3.97;;
69594;SDS011;56800;52.142;5.364;2023-05-19T02:45:10;12.52;;;4.13;;
69594;SDS011;56800;52.142;5.364;2023-05-19T02:47:37;12.02;;;4.10;;
69594;SDS011;56800;52.142;5.364;2023-05-19T02:50:04;15.07;;;4.20;;
69594;SDS011;56800;52.142;5.364;2023-05-19T02:52:31;11.55;;;3.95;;
69594;SDS011;56800;52.142;5.364;2023-05-19T02:54:58;11.43;;;4.20;;
69594;SDS011;56800;52.142;5.364;2023-05-19T02:57:25;13.20;;;4.05;;
69594;SDS011;56800;52.142;5.364;2023-05-19T02:59:54;9.52;;;4.00;;
69594;SDS011;56800;52.142;5.364;2023-05-19T03:02:21;9.37;;;3.80;;
69594;SDS011;56800;52.142;5.364;2023-05-19T03:04:48;9.38;;;4.07;;
69594;SDS011;56800;52.142;5.364;2023-05-19T03:07:15;11.45;;;4.25;;
69594;SDS011;56800;52.142;5.364;2023-05-19T03:09:42;10.32;;;4.20;;
69594;SDS011;56800;52.142;5.364;2023-05-19T03:12:08;13.60;;;4.30;;
69594;SDS011;56800;52.142;5.364;2023-05-19T03:14:35;13.67;;;4.40;;
69594;SDS011;56800;52.142;5.364;2023-05-19T03:17:03;11.93;;;4.43;;
69594;SDS011;56800;52.142;5.364;2023-05-19T03:19:32;18.23;;;4.97;;
69594;SDS011;56800;52.142;5.364;2023-05-19T03:21:59;13.27;;;4.47;;
69594;SDS011;56800;52.142;5.364;2023-05-19T03:24:26;12.13;;;4.00;;
69594;SDS011;56800;52.142;5.364;2023-05-19T03:26:52;8.50;;;3.97;;
69594;SDS011;56800;52.142;5.364;2023-05-19T03:29:19;13.32;;;4.70;;
69594;SDS011;56800;52.142;5.364;2023-05-19T03:31:46;10.98;;;4.55;;
69594;SDS011;56800;52.142;5.364;2023-05-19T03:34:13;9.65;;;4.15;;
69594;SDS011;56800;52.142;5.364;2023-05-19T03:36:39;11.45;;;4.68;;
69594;SDS011;56800;52.142;5.364;2023-05-19T03:39:06;13.87;;;4.23;;
69594;SDS011;56800;52.142;5.364;2023-05-19T03:41:34;10.68;;;4.65;;
69594;SDS011;56800;52.142;5.364;2023-05-19T03:44:01;15.13;;;4.50;;
69594;SDS011;56800;52.142;5.364;2023-05-19T03:46:27;13.07;;;5.07;;
69594;SDS011;56800;52.142;5.364;2023-05-19T03:48:54;12.23;;;4.18;;
69594;SDS011;56800;52.142;5.364;2023-05-19T03:51:21;10.37;;;4.83;;
69594;SDS011;56800;52.142;5.364;2023-05-19T03:53:47;13.95;;;4.72;;
69594;SDS011;56800;52.142;5.364;2023-05-19T03:56:14;12.75;;;4.82;;
69594;SDS011;56800;52.142;5.364;2023-05-19T03:58:43;12.95;;;4.80;;
69594;SDS011;56800;52.142;5.364;2023-05-19T04:01:10;13.50;;;4.75;;
69594;SDS011;56800;52.142;5.364;2023-05-19T04:03:37;11.33;;;4.87;;
69594;SDS011;56800;52.142;5.364;2023-05-19T04:06:04;12.77;;;4.78;;
69594;SDS011;56800;52.142;5.364;2023-05-19T04:08:31;9.40;;;4.72;;
69594;SDS011;56800;52.142;5.364;2023-05-19T04:10:57;15.70;;;5.30;;
69594;SDS011;56800;52.142;5.364;2023-05-19T04:13:24;15.95;;;6.10;;
69594;SDS011;56800;52.142;5.364;2023-05-19T04:15:51;14.27;;;4.93;;
69594;SDS011;56800;52.142;5.364;2023-05-19T04:18:18;16.08;;;5.20;;
69594;SDS011;56800;52.142;5.364;2023-05-19T04:20:45;16.35;;;5.13;;
69594;SDS011;56800;52.142;5.364;2023-05-19T04:23:11;16.75;;;5.70;;
69594;SDS011;56800;52.142;5.364;2023-05-19T04:25:38;13.07;;;5.00;;
69594;SDS011;56800;52.142;5.364;2023-05-19T04:28:06;12.53;;;4.67;;
69594;SDS011;56800;52.142;5.364;2023-05-19T04:30:32;15.88;;;4.90;;
69594;SDS011;56800;52.142;5.364;2023-05-19T04:32:59;13.25;;;4.88;;
69594;SDS011;56800;52.142;5.364;2023-05-19T04:35:28;12.60;;;5.30;;
69594;SDS011;56800;52.142;5.364;2023-05-19T04:37:55;13.23;;;5.55;;
69594;SDS011;56800;52.142;5.364;2023-05-19T04:40:21;15.40;;;5.47;;
69594;SDS011;56800;52.142;5.364;2023-05-19T04:42:49;14.95;;;5.53;;
69594;SDS011;56800;52.142;5.364;2023-05-19T04:45:17;13.43;;;5.07;;
69594;SDS011;56800;52.142;5.364;2023-05-19T04:47:44;13.25;;;5.40;;
69594;SDS011;56800;52.142;5.364;2023-05-19T04:50:13;12.52;;;5.45;;
69594;SDS011;56800;52.142;5.364;2023-05-19T04:52:41;12.90;;;5.10;;
69594;SDS011;56800;52.142;5.364;2023-05-19T04:55:10;12.85;;;5.50;;
69594;SDS011;56800;52.142;5.364;2023-05-19T04:57:38;15.02;;;5.78;;
69594;SDS011;56800;52.142;5.364;2023-05-19T05:00:05;13.68;;;5.85;;
69594;SDS011;56800;52.142;5.364;2023-05-19T05:02:38;14.40;;;5.78;;
69594;SDS011;56800;52.142;5.364;2023-05-19T05:05:06;15.63;;;5.70;;
69594;SDS011;56800;52.142;5.364;2023-05-19T05:07:34;16.92;;;6.10;;
69594;SDS011;56800;52.142;5.364;2023-05-19T05:10:01;14.90;;;6.35;;
69594;SDS011;56800;52.142;5.364;2023-05-19T05:12:29;15.57;;;5.72;;
69594;SDS011;56800;52.142;5.364;2023-05-19T05:14:56;17.17;;;5.70;;
69594;SDS011;56800;52.142;5.364;2023-05-19T05:17:23;14.23;;;6.43;;
69594;SDS011;56800;52.142;5.364;2023-05-19T05:19:51;14.07;;;5.78;;
69594;SDS011;56800;52.142;5.364;2023-05-19T05:22:18;20.67;;;6.10;;
69594;SDS011;56800;52.142;5.364;2023-05-19T05:24:45;13.18;;;5.63;;
69594;SDS011;56800;52.142;5.364;2023-05-19T05:27:11;14.30;;;5.57;;
69594;SDS011;56800;52.142;5.364;2023-05-19T05:29:39;14.77;;;6.13;;
69594;SDS011;56800;52.142;5.364;2023-05-19T05:32:06;17.90;;;5.63;;
69594;SDS011;56800;52.142;5.364;2023-05-19T05:34:33;12.35;;;6.05;;
69594;SDS011;56800;52.142;5.364;2023-05-19T05:37:01;17.60;;;6.40;;
69594;SDS011;56800;52.142;5.364;2023-05-19T05:39:27;14.95;;;6.22;;
69594;SDS011;56800;52.142;5.364;2023-05-19T05:41:54;15.23;;;5.67;;
69594;SDS011;56800;52.142;5.364;2023-05-19T05:44:21;15.15;;;6.25;;
69594;SDS011;56800;52.142;5.364;2023-05-19T05:46:47;14.65;;;6.05;;
69594;SDS011;56800;52.142;5.364;2023-05-19T05:49:14;15.32;;;5.75;;
69594;SDS011;56800;52.142;5.364;2023-05-19T05:51:41;11.18;;;5.43;;
69594;SDS011;56800;52.142;5.364;2023-05-19T05:54:28;14.30;;;5.90;;
69594;SDS011;56800;52.142;5.364;2023-05-19T05:56:55;13.95;;;6.15;;
69594;SDS011;56800;52.142;5.364;2023-05-19T05:59:22;13.50;;;6.78;;
69594;SDS011;56800;52.142;5.364;2023-05-19T06:01:49;15.57;;;6.05;;
69594;SDS011;56800;52.142;5.364;2023-05-19T06:04:16;15.75;;;5.95;;
69594;SDS011;56800;52.142;5.364;2023-05-19T06:06:42;14.20;;;5.70;;
69594;SDS011;56800;52.142;5.364;2023-05-19T06:09:09;11.27;;;5.78;;
69594;SDS011;56800;52.142;5.364;2023-05-19T06:11:37;11.80;;;5.82;;
69594;SDS011;56800;52.142;5.364;2023-05-19T06:14:04;10.80;;;5.70;;
69594;SDS011;56800;52.142;5.364;2023-05-19T06:16:30;15.15;;;6.20;;
69594;SDS011;56800;52.142;5.364;2023-05-19T06:18:57;11.23;;;5.43;;
69594;SDS011;56800;52.142;5.364;2023-05-19T06:21:24;14.38;;;5.57;;
69594;SDS011;56800;52.142;5.364;2023-05-19T06:23:51;11.63;;;5.53;;
69594;SDS011;56800;52.142;5.364;2023-05-19T06:26:18;15.05;;;5.72;;
69594;SDS011;56800;52.142;5.364;2023-05-19T06:28:45;12.32;;;5.40;;
69594;SDS011;56800;52.142;5.364;2023-05-19T06:31:11;12.63;;;5.23;;
69594;SDS011;56800;52.142;5.364;2023-05-19T06:33:38;10.38;;;5.40;;
69594;SDS011;56800;52.142;5.364;2023-05-19T06:36:05;15.65;;;5.70;;
69594;SDS011;56800;52.142;5.364;2023-05-19T06:38:33;11.07;;;4.93;;
69594;SDS011;56800;52.142;5.364;2023-05-19T06:41:00;11.13;;;5.53;;
69594;SDS011;56800;52.142;5.364;2023-05-19T06:43:26;11.53;;;4.60;;
69594;SDS011;56800;52.142;5.364;2023-05-19T06:45:53;14.40;;;5.05;;
69594;SDS011;56800;52.142;5.364;2023-05-19T06:48:20;12.05;;;5.53;;
69594;SDS011;56800;52.142;5.364;2023-05-19T06:50:47;13.70;;;5.22;;
69594;SDS011;56800;52.142;5.364;2023-05-19T06:53:15;13.38;;;5.25;;
69594;SDS011;56800;52.142;5.364;2023-05-19T06:55:42;14.87;;;5.50;;
69594;SDS011;56800;52.142;5.364;2023-05-19T06:58:23;11.70;;;5.03;;
69594;SDS011;56800;52.142;5.364;2023-05-19T07:00:50;12.50;;;4.95;;
69594;SDS011;56800;52.142;5.364;2023-05-19T07:03:16;12.20;;;4.68;;
69594;SDS011;56800;52.142;5.364;2023-05-19T07:05:43;12.18;;;4.90;;
69594;SDS011;56800;52.142;5.364;2023-05-19T07:08:11;13.20;;;4.50;;
69594;SDS011;56800;52.142;5.364;2023-05-19T07:10:37;12.25;;;4.63;;
69594;SDS011;56800;52.142;5.364;2023-05-19T07:13:04;13.05;;;5.32;;
69594;SDS011;56800;52.142;5.364;2023-05-19T07:15:31;16.30;;;4.15;;
69594;SDS011;56800;52.142;5.364;2023-05-19T07:17:58;13.35;;;4.30;;
69594;SDS011;56800;52.142;5.364;2023-05-19T07:20:25;11.50;;;4.03;;
69594;SDS011;56800;52.142;5.364;2023-05-19T07:22:51;11.30;;;4.65;;
69594;SDS011;56800;52.142;5.364;2023-05-19T07:25:18;10.55;;;4.10;;
69594;SDS011;56800;52.142;5.364;2023-05-19T07:27:45;11.73;;;4.32;;
69594;SDS011;56800;52.142;5.364;2023-05-19T07:30:12;11.38;;;4.18;;
69594;SDS011;56800;52.142;5.364;2023-05-19T07:32:38;13.00;;;3.90;;
69594;SDS011;56800;52.142;5.364;2023-05-19T07:35:05;9.68;;;3.78;;
69594;SDS011;56800;52.142;5.364;2023-05-19T07:37:32;12.02;;;3.90;;
69594;SDS011;56800;52.142;5.364;2023-05-19T07:39:59;14.10;;;4.32;;
69594;SDS011;56800;52.142;5.364;2023-05-19T07:42:25;13.30;;;3.58;;
69594;SDS011;56800;52.142;5.364;2023-05-19T07:44:52;10.57;;;3.60;;
69594;SDS011;56800;52.142;5.364;2023-05-19T07:47:19;10.45;;;3.50;;
69594;SDS011;56800;52.142;5.364;2023-05-19T07:49:45;7.97;;;3.30;;
69594;SDS011;56800;52.142;5.364;2023-05-19T07:52:15;11.45;;;4.22;;
69594;SDS011;56800;52.142;5.364;2023-05-19T07:54:44;8.55;;;3.60;;
69594;SDS011;56800;52.142;5.364;2023-05-19T07:57:11;9.53;;;3.83;;
69594;SDS011;56800;52.142;5.364;2023-05-19T07:59:39;10.75;;;3.50;;
69594;SDS011;56800;52.142;5.364;2023-05-19T08:02:06;9.90;;;4.13;;
69594;SDS011;56800;52.142;5.364;2023-05-19T08:04:33;7.97;;;3.03;;
69594;SDS011;56800;52.142;5.364;2023-05-19T08:07:00;9.77;;;3.80;;
69594;SDS011;56800;52.142;5.364;2023-05-19T08:09:26;8.07;;;3.07;;
69594;SDS011;56800;52.142;5.364;2023-05-19T08:11:53;12.85;;;3.50;;
69594;SDS011;56800;52.142;5.364;2023-05-19T08:14:20;13.95;;;3.47;;
69594;SDS011;56800;52.142;5.364;2023-05-19T08:16:48;14.02;;;3.67;;
69594;SDS011;56800;52.142;5.364;2023-05-19T08:19:15;10.75;;;3.38;;
69594;SDS011;56800;52.142;5.364;2023-05-19T08:21:41;12.07;;;3.07;;
69594;SDS011;56800;52.142;5.364;2023-05-19T08:24:09;11.68;;;2.90;;
69594;SDS011;56800;52.142;5.364;2023-05-19T08:26:36;11.02;;;2.50;;
69594;SDS011;56800;52.142;5.364;2023-05-19T08:29:03;12.43;;;2.83;;
69594;SDS011;56800;52.142;5.364;2023-05-19T08:31:30;8.95;;;2.78;;
69594;SDS011;56800;52.142;5.364;2023-05-19T08:33:57;11.87;;;3.33;;
69594;SDS011;56800;52.142;5.364;2023-05-19T08:36:24;8.15;;;2.35;;
69594;SDS011;56800;52.142;5.364;2023-05-19T08:38:50;10.45;;;2.95;;
69594;SDS011;56800;52.142;5.364;2023-05-19T08:41:17;11.07;;;2.80;;
69594;SDS011;56800;52.142;5.364;2023-05-19T08:43:44;11.52;;;2.40;;
69594;SDS011;56800;52.142;5.364;2023-05-19T08:46:12;9.40;;;2.00;;
69594;SDS011;56800;52.142;5.364;2023-05-19T08:48:41;9.18;;;1.92;;
69594;SDS011;56800;52.142;5.364;2023-05-19T08:54:03;14.30;;;4.05;;
69594;SDS011;56800;52.142;5.364;2023-05-19T08:56:39;8.57;;;3.38;;
69594;SDS011;56800;52.142;5.364;2023-05-19T08:59:14;11.70;;;3.80;;
69594;SDS011;56800;52.142;5.364;2023-05-19T09:01:45;14.57;;;3.00;;
69594;SDS011;56800;52.142;5.364;2023-05-19T09:04:12;9.43;;;3.20;;
69594;SDS011;56800;52.142;5.364;2023-05-19T09:06:40;6.63;;;1.92;;
69594;SDS011;56800;52.142;5.364;2023-05-19T09:09:07;8.25;;;1.92;;
69594;SDS011;56800;52.142;5.364;2023-05-19T09:11:34;7.17;;;2.10;;
69594;SDS011;56800;52.142;5.364;2023-05-19T09:14:05;9.68;;;2.30;;
69594;SDS011;56800;52.142;5.364;2023-05-19T09:16:32;9.10;;;2.30;;
69594;SDS011;56800;52.142;5.364;2023-05-19T09:18:59;8.00;;;2.47;;
69594;SDS011;56800;52.142;5.364;2023-05-19T09:21:30;7.47;;;2.33;;
69594;SDS011;56800;52.142;5.364;2023-05-19T09:23:58;10.53;;;2.40;;
69594;SDS011;56800;52.142;5.364;2023-05-19T09:26:40;7.65;;;2.47;;
69594;SDS011;56800;52.142;5.364;2023-05-19T09:29:11;9.13;;;2.92;;
69594;SDS011;56800;52.142;5.364;2023-05-19T09:31:39;9.68;;;2.22;;
69594;SDS011;56800;52.142;5.364;2023-05-19T09:34:21;12.07;;;2.92;;
69594;SDS011;56800;52.142;5.364;2023-05-19T09:36:49;7.93;;;2.20;;
69594;SDS011;56800;52.142;5.364;2023-05-19T09:39:19;9.30;;;2.72;;
69594;SDS011;56800;52.142;5.364;2023-05-19T09:41:53;10.35;;;2.47;;
69594;SDS011;56800;52.142;5.364;2023-05-19T09:44:24;8.05;;;2.20;;
69594;SDS011;56800;52.142;5.364;2023-05-19T09:46:54;7.63;;;2.60;;
69594;SDS011;56800;52.142;5.364;2023-05-19T09:49:22;13.93;;;2.63;;
69594;SDS011;56800;52.142;5.364;2023-05-19T09:51:54;9.85;;;3.15;;
69594;SDS011;56800;52.142;5.364;2023-05-19T09:54:24;6.70;;;2.63;;
69594;SDS011;56800;52.142;5.364;2023-05-19T09:56:58;8.05;;;2.20;;
69594;SDS011;56800;52.142;5.364;2023-05-19T09:59:26;10.05;;;2.60;;
69594;SDS011;56800;52.142;5.364;2023-05-19T10:01:58;8.43;;;2.07;;
69594;SDS011;56800;52.142;5.364;2023-05-19T10:04:26;6.65;;;2.70;;
69594;SDS011;56800;52.142;5.364;2023-05-19T10:06:55;9.35;;;2.20;;
69594;SDS011;56800;52.142;5.364;2023-05-19T10:09:26;10.48;;;2.35;;
69594;SDS011;56800;52.142;5.364;2023-05-19T10:11:55;8.90;;;2.70;;
69594;SDS011;56800;52.142;5.364;2023-05-19T10:14:23;7.63;;;2.40;;
69594;SDS011;56800;52.142;5.364;2023-05-19T10:16:53;10.43;;;2.65;;
69594;SDS011;56800;52.142;5.364;2023-05-19T10:19:25;11.95;;;3.10;;
69594;SDS011;56800;52.142;5.364;2023-05-19T10:21:53;10.68;;;2.72;;
69594;SDS011;56800;52.142;5.364;2023-05-19T10:24:20;10.75;;;3.17;;
69594;SDS011;56800;52.142;5.364;2023-05-19T10:26:48;10.30;;;2.40;;
69594;SDS011;56800;52.142;5.364;2023-05-19T10:29:24;6.80;;;2.67;;
69594;SDS011;56800;52.142;5.364;2023-05-19T10:31:54;7.32;;;2.50;;
69594;SDS011;56800;52.142;5.364;2023-05-19T10:34:33;11.40;;;3.13;;
69594;SDS011;56800;52.142;5.364;2023-05-19T10:37:20;8.00;;;2.75;;
69594;SDS011;56800;52.142;5.364;2023-05-19T10:39:59;8.73;;;2.60;;
69594;SDS011;56800;52.142;5.364;2023-05-19T10:42:39;8.35;;;2.83;;
69594;SDS011;56800;52.142;5.364;2023-05-19T10:45:22;8.60;;;2.70;;
69594;SDS011;56800;52.142;5.364;2023-05-19T10:47:53;7.57;;;2.83;;
69594;SDS011;56800;52.142;5.364;2023-05-19T10:50:20;7.45;;;2.92;;
69594;SDS011;56800;52.142;5.364;2023-05-19T10:52:51;8.70;;;2.60;;
69594;SDS011;56800;52.142;5.364;2023-05-19T11:01:15;10.13;;;2.83;;
69594;SDS011;56800;52.142;5.364;2023-05-19T11:03:43;6.50;;;2.40;;
69594;SDS011;56800;52.142;5.364;2023-05-19T11:06:19;10.20;;;2.73;;
69594;SDS011;56800;52.142;5.364;2023-05-19T11:08:51;7.80;;;3.05;;
69594;SDS011;56800;52.142;5.364;2023-05-19T11:11:18;10.98;;;3.30;;
69594;SDS011;56800;52.142;5.364;2023-05-19T11:13:46;7.63;;;2.70;;
69594;SDS011;56800;52.142;5.364;2023-05-19T11:16:30;9.38;;;3.50;;
69594;SDS011;56800;52.142;5.364;2023-05-19T11:18:58;9.50;;;3.07;;
69594;SDS011;56800;52.142;5.364;2023-05-19T11:24:44;6.93;;;2.53;;
69594;SDS011;56800;52.142;5.364;2023-05-19T11:29:51;10.50;;;3.20;;
69594;SDS011;56800;52.142;5.364;2023-05-19T11:32:19;7.10;;;2.83;;
69594;SDS011;56800;52.142;5.364;2023-05-19T11:34:47;8.73;;;3.10;;
69594;SDS011;56800;52.142;5.364;2023-05-19T11:37:15;7.93;;;3.28;;
69594;SDS011;56800;52.142;5.364;2023-05-19T11:39:41;5.82;;;2.95;;
69594;SDS011;56800;52.142;5.364;2023-05-19T11:42:10;10.15;;;3.03;;
69594;SDS011;56800;52.142;5.364;2023-05-19T11:44:37;8.80;;;2.97;;
69594;SDS011;56800;52.142;5.364;2023-05-19T11:47:03;7.30;;;2.70;;
69594;SDS011;56800;52.142;5.364;2023-05-19T11:49:31;10.02;;;2.78;;
69594;SDS011;56800;52.142;5.364;2023-05-19T11:52:00;7.22;;;2.45;;
69594;SDS011;56800;52.142;5.364;2023-05-19T11:54:28;7.20;;;2.65;;
69594;SDS011;56800;52.142;5.364;2023-05-19T11:57:00;12.10;;;3.07;;
69594;SDS011;56800;52.142;5.364;2023-05-19T11:59:31;10.32;;;2.72;;
69594;SDS011;56800;52.142;5.364;2023-05-19T12:02:02;6.15;;;3.00;;
69594;SDS011;56800;52.142;5.364;2023-05-19T12:04:41;7.13;;;2.40;;
69594;SDS011;56800;52.142;5.364;2023-05-19T12:07:09;10.40;;;2.55;;
69594;SDS011;56800;52.142;5.364;2023-05-19T12:09:37;8.43;;;2.40;;
69594;SDS011;56800;52.142;5.364;2023-05-19T12:12:04;8.93;;;3.25;;
69594;SDS011;56800;52.142;5.364;2023-05-19T12:14:31;8.13;;;2.97;;
69594;SDS011;56800;52.142;5.364;2023-05-19T12:17:08;10.45;;;2.85;;
69594;SDS011;56800;52.142;5.364;2023-05-19T12:19:36;12.00;;;3.30;;
69594;SDS011;56800;52.142;5.364;2023-05-19T12:22:04;7.77;;;2.90;;
69594;SDS011;56800;52.142;5.364;2023-05-19T12:24:32;10.00;;;3.33;;
69594;SDS011;56800;52.142;5.364;2023-05-19T12:27:19;10.02;;;3.50;;
69594;SDS011;56800;52.142;5.364;2023-05-19T12:29:52;13.40;;;3.50;;
69594;SDS011;56800;52.142;5.364;2023-05-19T12:32:23;10.27;;;3.50;;
69594;SDS011;56800;52.142;5.364;2023-05-19T12:34:51;11.77;;;3.57;;
69594;SDS011;56800;52.142;5.364;2023-05-19T12:37:18;7.47;;;3.42;;
69594;SDS011;56800;52.142;5.364;2023-05-19T12:39:47;11.82;;;3.92;;
69594;SDS011;56800;52.142;5.364;2023-05-19T12:42:14;11.20;;;3.60;;
69594;SDS011;56800;52.142;5.364;2023-05-19T12:44:48;11.10;;;3.58;;
69594;SDS011;56800;52.142;5.364;2023-05-19T12:47:18;7.83;;;3.60;;
69594;SDS011;56800;52.142;5.364;2023-05-19T12:52:33;10.32;;;3.38;;
69594;SDS011;56800;52.142;5.364;2023-05-19T12:55:06;6.57;;;2.90;;
69594;SDS011;56800;52.142;5.364;2023-05-19T12:57:37;10.88;;;3.60;;
69594;SDS011;56800;52.142;5.364;2023-05-19T13:00:05;8.83;;;3.00;;
69594;SDS011;56800;52.142;5.364;2023-05-19T13:02:34;7.68;;;3.33;;
69594;SDS011;56800;52.142;5.364;2023-05-19T13:05:19;10.10;;;3.63;;
69594;SDS011;56800;52.142;5.364;2023-05-19T13:07:53;12.10;;;3.10;;
69594;SDS011;56800;52.142;5.364;2023-05-19T13:10:21;13.23;;;3.38;;
69594;SDS011;56800;52.142;5.364;2023-05-19T13:12:48;8.60;;;3.10;;
69594;SDS011;56800;52.142;5.364;2023-05-19T13:15:15;9.07;;;3.47;;
69594;SDS011;56800;52.142;5.364;2023-05-19T13:17:41;8.70;;;2.88;;
69594;SDS011;56800;52.142;5.364;2023-05-19T13:20:08;10.75;;;2.90;;
69594;SDS011;56800;52.142;5.364;2023-05-19T13:22:35;9.95;;;3.55;;
69594;SDS011;56800;52.142;5.364;2023-05-19T13:25:03;10.03;;;3.30;;
69594;SDS011;56800;52.142;5.364;2023-05-19T13:27:29;8.73;;;3.13;;
69594;SDS011;56800;52.142;5.364;2023-05-19T13:29:56;8.00;;;3.55;;
69594;SDS011;56800;52.142;5.364;2023-05-19T13:32:23;8.60;;;2.92;;
69594;SDS011;56800;52.142;5.364;2023-05-19T13:34:50;7.82;;;3.30;;
69594;SDS011;56800;52.142;5.364;2023-05-19T13:37:16;9.77;;;3.53;;
69594;SDS011;56800;52.142;5.364;2023-05-19T13:39:43;6.97;;;2.97;;
69594;SDS011;56800;52.142;5.364;2023-05-19T13:42:11;8.60;;;3.63;;
69594;SDS011;56800;52.142;5.364;2023-05-19T13:44:37;10.07;;;3.38;;
69594;SDS011;56800;52.142;5.364;2023-05-19T13:47:04;9.75;;;3.60;;
69594;SDS011;56800;52.142;5.364;2023-05-19T13:49:31;7.77;;;3.00;;
69594;SDS011;56800;52.142;5.364;2023-05-19T13:51:57;9.63;;;3.83;;
69594;SDS011;56800;52.142;5.364;2023-05-19T13:54:24;8.77;;;3.72;;
69594;SDS011;56800;52.142;5.364;2023-05-19T13:56:52;9.85;;;3.58;;
69594;SDS011;56800;52.142;5.364;2023-05-19T13:59:19;11.30;;;3.60;;
69594;SDS011;56800;52.142;5.364;2023-05-19T14:01:46;9.67;;;3.30;;
69594;SDS011;56800;52.142;5.364;2023-05-19T14:04:14;12.43;;;3.25;;
69594;SDS011;56800;52.142;5.364;2023-05-19T14:06:43;9.20;;;3.63;;
69594;SDS011;56800;52.142;5.364;2023-05-19T14:09:10;8.30;;;2.92;;
69594;SDS011;56800;52.142;5.364;2023-05-19T14:11:37;8.63;;;3.25;;
69594;SDS011;56800;52.142;5.364;2023-05-19T14:14:04;7.93;;;3.00;;
69594;SDS011;56800;52.142;5.364;2023-05-19T14:16:31;8.25;;;3.55;;
69594;SDS011;56800;52.142;5.364;2023-05-19T14:18:58;6.15;;;3.30;;
69594;SDS011;56800;52.142;5.364;2023-05-19T14:21:25;11.90;;;3.25;;
69594;SDS011;56800;52.142;5.364;2023-05-19T14:23:52;6.20;;;3.17;;
69594;SDS011;56800;52.142;5.364;2023-05-19T14:26:19;13.17;;;3.53;;
69594;SDS011;56800;52.142;5.364;2023-05-19T14:28:47;9.80;;;2.75;;
69594;SDS011;56800;52.142;5.364;2023-05-19T14:31:13;7.57;;;3.30;;
69594;SDS011;56800;52.142;5.364;2023-05-19T14:33:40;9.05;;;3.13;;
69594;SDS011;56800;52.142;5.364;2023-05-19T14:36:08;8.57;;;3.30;;
69594;SDS011;56800;52.142;5.364;2023-05-19T14:38:35;10.67;;;2.90;;
69594;SDS011;56800;52.142;5.364;2023-05-19T14:41:02;11.93;;;3.47;;
69594;SDS011;56800;52.142;5.364;2023-05-19T14:43:29;9.43;;;3.30;;
69594;SDS011;56800;52.142;5.364;2023-05-19T14:45:56;10.32;;;3.30;;
69594;SDS011;56800;52.142;5.364;2023-05-19T14:48:22;11.50;;;3.28;;
69594;SDS011;56800;52.142;5.364;2023-05-19T14:50:49;10.87;;;2.77;;
69594;SDS011;56800;52.142;5.364;2023-05-19T14:53:16;10.90;;;3.20;;
69594;SDS011;56800;52.142;5.364;2023-05-19T14:55:43;8.32;;;3.30;;
69594;SDS011;56800;52.142;5.364;2023-05-19T14:58:09;6.40;;;3.35;;
69594;SDS011;56800;52.142;5.364;2023-05-19T15:00:53;6.78;;;3.22;;
69594;SDS011;56800;52.142;5.364;2023-05-19T15:03:19;6.93;;;3.30;;
69594;SDS011;56800;52.142;5.364;2023-05-19T15:05:48;8.45;;;3.10;;
69594;SDS011;56800;52.142;5.364;2023-05-19T15:08:14;6.25;;;3.40;;
69594;SDS011;56800;52.142;5.364;2023-05-19T15:10:41;9.95;;;3.38;;
69594;SDS011;56800;52.142;5.364;2023-05-19T15:13:08;10.13;;;2.97;;
69594;SDS011;56800;52.142;5.364;2023-05-19T15:15:35;12.27;;;3.07;;
69594;SDS011;56800;52.142;5.364;2023-05-19T15:18:02;10.02;;;2.80;;